Time;durP1;ratioP1;P1;durP2;ratioP2;P2;SDS_P1;SDS_P2;PMS_P1;PMS_P2;Temp;Humidity;BMP_temperature;BMP_pressure;BME280_temperature;BME280_humidity;BME280_pressure;Samples;Min_cycle;Max_cycle;Signal;HPM_P1;HPM_P2
2023/03/06 00:02:26;;;;;;;14.47;6.97;;;1.40;99.90;;;;;;5035987;28;20470;-68
2023/03/06 00:04:53;;;;;;;9.93;7.63;;;1.30;99.90;;;;;;5035815;28;20462;-65
2023/03/06 00:07:20;;;;;;;16.53;7.60;;;1.20;99.90;;;;;;5035992;28;20506;-67
2023/03/06 00:09:46;;;;;;;11.20;8.00;;;1.20;99.90;;;;;;5035832;28;20551;-66
2023/03/06 00:12:13;;;;;;;18.10;10.30;;;1.20;99.90;;;;;;5035801;28;20470;-66
2023/03/06 00:14:42;;;;;;;13.20;10.10;;;1.20;99.90;;;;;;5035343;28;20495;-67
2023/03/06 00:17:09;;;;;;;16.83;10.63;;;1.10;99.90;;;;;;5035944;28;20452;-67
2023/03/06 00:19:35;;;;;;;12.27;9.33;;;1.10;99.90;;;;;;5035477;28;20475;-66
2023/03/06 00:22:03;;;;;;;17.40;11.10;;;1.00;99.90;;;;;;5035771;28;20455;-66
2023/03/06 00:24:29;;;;;;;12.50;8.07;;;1.00;99.90;;;;;;5035770;28;20460;-67
2023/03/06 00:26:56;;;;;;;12.00;8.70;;;1.00;99.90;;;;;;5035489;28;20494;-66
2023/03/06 00:29:23;;;;;;;14.77;9.10;;;1.00;99.90;;;;;;5035410;28;20547;-67
2023/03/06 00:31:51;;;;;;;15.70;10.33;;;1.00;99.90;;;;;;5035152;28;20466;-66
2023/03/06 00:34:18;;;;;;;16.57;8.90;;;1.00;99.90;;;;;;5035563;28;20466;-66
2023/03/06 00:36:45;;;;;;;13.90;8.90;;;1.00;99.90;;;;;;5035622;28;20460;-66
2023/03/06 00:39:12;;;;;;;19.80;10.07;;;1.00;99.90;;;;;;5035286;28;20471;-65
2023/03/06 00:41:38;;;;;;;21.57;9.50;;;0.90;99.90;;;;;;5035162;28;20523;-66
2023/03/06 00:44:05;;;;;;;20.77;11.03;;;0.90;99.90;;;;;;5035437;28;20466;-67
2023/03/06 00:46:32;;;;;;;18.43;11.50;;;1.00;99.90;;;;;;5035367;28;20500;-67
2023/03/06 00:49:00;;;;;;;17.83;10.87;;;0.90;99.90;;;;;;5035300;28;20551;-67
2023/03/06 00:51:27;;;;;;;17.03;9.30;;;0.90;99.90;;;;;;5035238;28;20455;-67
2023/03/06 00:53:54;;;;;;;20.20;9.40;;;0.90;99.90;;;;;;5035424;28;20456;-67
2023/03/06 00:56:21;;;;;;;18.10;9.50;;;1.00;99.90;;;;;;5035967;28;20462;-67
2023/03/06 00:58:48;;;;;;;17.50;8.47;;;0.90;99.90;;;;;;5035459;28;20459;-67
2023/03/06 01:01:15;;;;;;;14.03;8.67;;;1.00;99.90;;;;;;5035307;28;20543;-67
2023/03/06 01:03:41;;;;;;;17.80;9.60;;;0.90;99.90;;;;;;5035739;28;20929;-67
2023/03/06 01:06:10;;;;;;;18.37;9.47;;;0.90;99.90;;;;;;5035539;28;20479;-66
2023/03/06 01:08:36;;;;;;;16.03;9.70;;;0.90;99.90;;;;;;5035550;28;20462;-66
2023/03/06 01:11:03;;;;;;;16.40;9.53;;;0.90;99.90;;;;;;5035531;28;20976;-66
2023/03/06 01:13:30;;;;;;;16.90;9.37;;;0.90;99.90;;;;;;5035648;28;20456;-66
2023/03/06 01:16:05;;;;;;;16.50;9.60;;;0.90;99.90;;;;;;5034963;28;20480;-67
2023/03/06 01:18:32;;;;;;;14.90;7.80;;;0.90;99.90;;;;;;5034586;28;20443;-68
2023/03/06 01:20:59;;;;;;;12.43;8.13;;;0.80;99.90;;;;;;5034505;28;20466;-67
2023/03/06 01:23:27;;;;;;;11.13;7.43;;;0.80;99.90;;;;;;5035113;28;20775;-67
2023/03/06 01:25:54;;;;;;;12.23;7.30;;;0.80;99.90;;;;;;5034892;28;20809;-67
2023/03/06 01:28:21;;;;;;;9.30;6.70;;;0.80;99.90;;;;;;5034580;28;20550;-68
2023/03/06 01:30:48;;;;;;;14.83;7.80;;;0.80;99.90;;;;;;5034680;28;20452;-67
2023/03/06 01:33:15;;;;;;;14.10;8.67;;;0.80;99.90;;;;;;5034923;28;20470;-67
2023/03/06 01:35:41;;;;;;;15.07;9.67;;;0.80;99.90;;;;;;5034898;28;20809;-67
2023/03/06 01:38:08;;;;;;;14.97;7.93;;;0.80;99.90;;;;;;5034976;28;20466;-67
2023/03/06 01:40:38;;;;;;;13.57;8.97;;;0.80;99.90;;;;;;5034759;28;20470;-67
2023/03/06 01:43:24;;;;;;;15.83;9.90;;;0.80;99.90;;;;;;5034699;28;20456;-68
2023/03/06 01:46:32;;;;;;;14.77;9.40;;;0.90;99.90;;;;;;5034539;28;20473;-68
2023/03/06 01:49:02;;;;;;;15.70;10.20;;;0.90;99.90;;;;;;4935469;29;20738;-68
2023/03/06 01:51:33;;;;;;;14.37;8.93;;;0.90;99.90;;;;;;5021552;28;20516;-67
2023/03/06 01:54:04;;;;;;;20.77;10.40;;;0.90;99.90;;;;;;5034574;28;20531;-67
2023/03/06 01:56:32;;;;;;;17.43;10.70;;;1.00;99.90;;;;;;5034565;28;20436;-68
2023/03/06 01:59:00;;;;;;;17.10;10.77;;;1.00;99.90;;;;;;5034529;28;20451;-68
2023/03/06 02:01:27;;;;;;;18.50;12.30;;;1.00;99.90;;;;;;5034510;28;20461;-68
2023/03/06 02:03:55;;;;;;;20.00;11.10;;;1.00;99.90;;;;;;5034278;28;20954;-67
2023/03/06 02:06:22;;;;;;;16.17;10.70;;;1.10;99.90;;;;;;5034176;28;20475;-66
2023/03/06 02:08:50;;;;;;;21.33;11.90;;;1.10;99.90;;;;;;5034375;28;20771;-68
2023/03/06 02:11:20;;;;;;;16.83;10.83;;;1.10;99.90;;;;;;5034535;28;20474;-68
2023/03/06 02:13:49;;;;;;;21.77;12.77;;;1.20;99.90;;;;;;5037475;28;20466;-68
2023/03/06 02:16:17;;;;;;;18.33;11.50;;;1.30;99.90;;;;;;5038185;28;20528;-68
2023/03/06 02:18:46;;;;;;;18.60;11.67;;;1.40;99.90;;;;;;5037880;28;20986;-66
2023/03/06 02:21:19;;;;;;;19.20;12.13;;;1.50;99.90;;;;;;5037911;28;20470;-67
2023/03/06 02:23:55;;;;;;;16.30;10.20;;;1.50;99.90;;;;;;5037667;28;20444;-67
2023/03/06 02:26:25;;;;;;;17.63;10.80;;;1.60;99.90;;;;;;5037956;28;20559;-67
2023/03/06 02:28:51;;;;;;;17.97;10.63;;;1.60;99.90;;;;;;5037909;28;20462;-67
2023/03/06 02:31:21;;;;;;;16.17;11.10;;;1.70;99.90;;;;;;5037838;28;20853;-67
2023/03/06 02:34:01;;;;;;;15.30;10.67;;;1.60;99.90;;;;;;5037886;28;20519;-67
2023/03/06 02:36:29;;;;;;;20.30;10.83;;;1.70;99.90;;;;;;5037778;28;20440;-67
2023/03/06 02:38:57;;;;;;;20.27;11.23;;;1.70;99.90;;;;;;5037741;28;20471;-66
2023/03/06 02:41:25;;;;;;;16.40;10.80;;;1.70;99.90;;;;;;5038041;28;20456;-67
2023/03/06 02:43:53;;;;;;;17.30;11.57;;;1.70;99.90;;;;;;5037742;28;20983;-67
2023/03/06 02:46:20;;;;;;;19.13;11.60;;;1.80;99.90;;;;;;5037468;28;20486;-67
2023/03/06 02:48:47;;;;;;;20.23;10.97;;;1.90;99.90;;;;;;5038078;28;20483;-67
2023/03/06 02:51:13;;;;;;;18.73;10.90;;;1.90;99.90;;;;;;5037559;28;20460;-66
2023/03/06 02:53:40;;;;;;;17.53;10.83;;;1.90;99.90;;;;;;5037719;28;20458;-66
2023/03/06 02:56:08;;;;;;;20.23;10.73;;;1.90;99.90;;;;;;5037505;28;20542;-67
2023/03/06 02:58:36;;;;;;;19.20;10.70;;;1.90;99.90;;;;;;5037574;28;20460;-67
2023/03/06 03:01:03;;;;;;;19.07;11.30;;;2.00;99.90;;;;;;5037376;28;20547;-66
2023/03/06 03:03:31;;;;;;;22.30;12.53;;;2.10;99.90;;;;;;5037053;28;20471;-65
2023/03/06 03:05:58;;;;;;;19.67;11.10;;;2.00;99.90;;;;;;5037116;28;20518;-67
2023/03/06 03:08:26;;;;;;;21.50;10.43;;;2.10;99.90;;;;;;5037728;28;20460;-68
2023/03/06 03:10:52;;;;;;;16.00;10.33;;;2.10;99.90;;;;;;5036808;28;20460;-68
2023/03/06 03:13:19;;;;;;;16.00;10.90;;;2.10;99.90;;;;;;5037288;28;20460;-68
2023/03/06 03:15:58;;;;;;;17.97;10.63;;;2.20;99.90;;;;;;5036633;28;20823;-67
2023/03/06 03:18:25;;;;;;;19.13;10.87;;;2.20;99.90;;;;;;5037036;28;20440;-68
2023/03/06 03:20:52;;;;;;;17.07;10.03;;;2.30;99.90;;;;;;5036874;28;20456;-68
2023/03/06 03:23:19;;;;;;;18.83;10.33;;;2.30;99.90;;;;;;5036843;28;20547;-67
2023/03/06 03:25:46;;;;;;;15.13;10.93;;;2.30;99.90;;;;;;5036819;28;20797;-67
2023/03/06 03:28:13;;;;;;;18.10;12.20;;;2.30;99.90;;;;;;5037001;28;20566;-67
2023/03/06 03:30:40;;;;;;;16.67;11.33;;;2.30;99.90;;;;;;5036834;28;20456;-67
2023/03/06 03:33:09;;;;;;;14.97;10.53;;;2.40;99.90;;;;;;5036665;28;20456;-67
2023/03/06 03:35:36;;;;;;;14.50;12.10;;;2.40;99.90;;;;;;5036501;28;20550;-67
2023/03/06 03:38:03;;;;;;;18.40;14.50;;;2.40;99.90;;;;;;5036693;28;20462;-67
2023/03/06 03:40:30;;;;;;;24.77;20.10;;;2.40;99.90;;;;;;5036704;28;20456;-67
2023/03/06 03:42:57;;;;;;;25.63;19.60;;;2.40;99.90;;;;;;5036690;28;20466;-67
2023/03/06 03:45:24;;;;;;;23.70;20.80;;;2.40;99.90;;;;;;5036604;28;20547;-67
2023/03/06 03:47:51;;;;;;;30.00;22.17;;;2.40;99.90;;;;;;5036489;28;20483;-67
2023/03/06 03:50:20;;;;;;;21.87;15.30;;;2.40;99.90;;;;;;5036461;28;20466;-67
2023/03/06 03:52:46;;;;;;;17.80;13.97;;;2.40;99.90;;;;;;5036418;28;21000;-67
2023/03/06 03:55:13;;;;;;;13.20;9.90;;;2.30;99.90;;;;;;5036021;28;20460;-67
2023/03/06 03:57:41;;;;;;;10.63;8.07;;;2.30;99.90;;;;;;5036769;28;20456;-68
2023/03/06 04:00:14;;;;;;;13.03;7.90;;;2.20;99.90;;;;;;5035930;28;20934;-67
2023/03/06 04:02:41;;;;;;;8.00;6.67;;;2.20;99.90;;;;;;5035934;28;20487;-67
2023/03/06 04:05:09;;;;;;;11.80;6.90;;;2.20;99.90;;;;;;5036189;28;20462;-67
2023/03/06 04:07:37;;;;;;;10.77;6.77;;;2.10;99.90;;;;;;5035761;28;20518;-69
2023/03/06 04:10:05;;;;;;;9.23;6.60;;;2.10;99.90;;;;;;5036296;28;20456;-67
2023/03/06 04:12:32;;;;;;;7.00;4.70;;;2.00;99.90;;;;;;5036002;28;20855;-67
2023/03/06 04:14:58;;;;;;;7.50;6.13;;;1.90;99.90;;;;;;5045727;28;20484;-67
2023/03/06 04:17:26;;;;;;;7.73;5.70;;;1.80;99.90;;;;;;5055980;28;20455;-66
2023/03/06 04:19:53;;;;;;;6.77;5.13;;;1.80;99.90;;;;;;5055350;28;20465;-67
2023/03/06 04:22:20;;;;;;;8.73;5.53;;;1.70;99.90;;;;;;5055837;28;20545;-67
2023/03/06 04:24:48;;;;;;;7.00;5.47;;;1.60;99.90;;;;;;5055715;28;20456;-66
2023/03/06 04:27:15;;;;;;;7.80;5.10;;;1.60;99.90;;;;;;5055860;28;20487;-67
2023/03/06 04:29:42;;;;;;;6.70;4.43;;;1.60;99.90;;;;;;5055673;28;20924;-67
2023/03/06 04:32:09;;;;;;;5.00;4.33;;;1.70;99.90;;;;;;5055473;28;20461;-66
2023/03/06 04:34:37;;;;;;;4.77;3.97;;;1.60;99.90;;;;;;5056179;28;20550;-66
2023/03/06 04:37:04;;;;;;;5.87;4.77;;;1.50;99.90;;;;;;5055303;28;20461;-67
2023/03/06 04:39:31;;;;;;;5.10;4.53;;;1.50;99.90;;;;;;5055078;28;20557;-67
2023/03/06 04:41:59;;;;;;;4.63;4.23;;;1.50;99.90;;;;;;5055476;28;20853;-66
2023/03/06 04:44:26;;;;;;;5.07;4.57;;;1.40;99.90;;;;;;5055441;28;20562;-67
2023/03/06 04:46:53;;;;;;;6.00;4.50;;;1.40;99.90;;;;;;5055168;28;20562;-67
2023/03/06 04:49:19;;;;;;;5.90;4.60;;;1.40;99.90;;;;;;5055042;28;20463;-66
2023/03/06 04:51:46;;;;;;;5.10;4.10;;;1.30;99.90;;;;;;5055572;28;20550;-67
2023/03/06 04:54:13;;;;;;;5.70;5.00;;;1.40;99.90;;;;;;5055768;28;20455;-67
2023/03/06 04:56:40;;;;;;;8.37;5.07;;;1.40;99.90;;;;;;5055457;28;20984;-66
2023/03/06 04:59:08;;;;;;;6.10;5.10;;;1.40;99.90;;;;;;5055223;28;20546;-67
2023/03/06 05:01:35;;;;;;;5.70;4.63;;;1.30;99.90;;;;;;5054993;28;20999;-67
2023/03/06 05:04:02;;;;;;;9.10;4.97;;;1.40;99.90;;;;;;5055599;28;20926;-67
2023/03/06 05:06:29;;;;;;;6.60;4.77;;;1.40;99.90;;;;;;5054967;28;20550;-67
2023/03/06 05:08:56;;;;;;;5.53;4.93;;;1.40;99.90;;;;;;5055155;28;20573;-66
2023/03/06 05:11:23;;;;;;;4.80;3.90;;;1.50;99.90;;;;;;5054975;28;20465;-67
2023/03/06 05:13:50;;;;;;;5.20;4.70;;;1.50;99.90;;;;;;5054622;28;20985;-66
2023/03/06 05:16:18;;;;;;;4.77;4.27;;;1.50;99.90;;;;;;5054730;28;20482;-68
2023/03/06 05:18:45;;;;;;;6.07;4.50;;;1.30;99.90;;;;;;5054917;28;20459;-68
2023/03/06 05:21:12;;;;;;;5.27;4.17;;;1.30;99.90;;;;;;5054988;28;20554;-66
2023/03/06 05:23:39;;;;;;;6.40;4.90;;;1.30;99.90;;;;;;5054567;28;20461;-67
2023/03/06 05:26:08;;;;;;;5.33;4.63;;;1.20;99.90;;;;;;5054520;28;20516;-67
2023/03/06 05:28:35;;;;;;;4.83;4.20;;;1.20;99.90;;;;;;5054463;28;20479;-67
2023/03/06 05:31:02;;;;;;;5.60;4.37;;;1.10;99.90;;;;;;5054613;28;20462;-67
2023/03/06 05:33:31;;;;;;;4.73;3.80;;;1.10;99.90;;;;;;5054411;28;20546;-67
2023/03/06 05:35:58;;;;;;;5.77;4.10;;;1.20;99.90;;;;;;5054874;28;20550;-68
2023/03/06 05:38:25;;;;;;;4.43;3.90;;;1.20;99.90;;;;;;5054586;28;20465;-67
2023/03/06 05:40:52;;;;;;;6.33;4.00;;;1.20;99.90;;;;;;5054640;28;20462;-67
2023/03/06 05:43:19;;;;;;;6.63;4.63;;;1.10;99.90;;;;;;5054570;28;20799;-66
2023/03/06 05:45:46;;;;;;;4.90;4.00;;;1.00;99.90;;;;;;5054390;28;20554;-67
2023/03/06 05:48:13;;;;;;;5.17;4.33;;;1.00;99.90;;;;;;5057957;28;20481;-67
2023/03/06 05:50:41;;;;;;;5.13;4.27;;;1.00;99.90;;;;;;5058561;28;20454;-68
2023/03/06 05:53:08;;;;;;;5.17;4.50;;;1.00;99.90;;;;;;5058537;28;20789;-66
2023/03/06 05:55:35;;;;;;;8.23;4.33;;;1.10;99.90;;;;;;5058145;28;20455;-67
2023/03/06 05:58:02;;;;;;;8.23;5.40;;;1.10;99.90;;;;;;5058528;28;20562;-67
2023/03/06 06:00:29;;;;;;;5.53;4.23;;;1.10;99.90;;;;;;5058530;28;20541;-67
2023/03/06 06:02:56;;;;;;;6.80;4.97;;;1.10;99.90;;;;;;5058734;28;20473;-67
2023/03/06 06:05:22;;;;;;;6.50;4.03;;;1.10;99.90;;;;;;5058386;28;20458;-66
2023/03/06 06:07:51;;;;;;;5.37;4.77;;;1.10;99.90;;;;;;5058296;28;20479;-67
2023/03/06 06:10:18;;;;;;;6.50;5.10;;;0.90;99.90;;;;;;5058349;28;20477;-68
2023/03/06 06:12:44;;;;;;;5.63;5.03;;;1.00;99.90;;;;;;5058079;28;20467;-67
2023/03/06 06:15:11;;;;;;;4.97;4.47;;;1.00;99.90;;;;;;5057784;28;20579;-66
2023/03/06 06:17:38;;;;;;;5.97;4.70;;;1.00;99.90;;;;;;5058286;28;20513;-67
2023/03/06 06:20:06;;;;;;;6.03;4.70;;;1.00;99.90;;;;;;5058257;28;20463;-66
2023/03/06 06:22:36;;;;;;;6.90;4.80;;;1.10;99.90;;;;;;5057864;28;20969;-66
2023/03/06 06:25:06;;;;;;;7.37;5.10;;;1.10;99.90;;;;;;5058038;28;20462;-67
2023/03/06 06:27:32;;;;;;;6.73;4.40;;;1.10;99.90;;;;;;5058029;28;20510;-67
2023/03/06 06:29:59;;;;;;;7.30;5.30;;;1.00;99.90;;;;;;5057781;28;20907;-67
2023/03/06 06:32:26;;;;;;;5.80;4.90;;;1.00;99.90;;;;;;5057748;28;20462;-67
2023/03/06 06:34:53;;;;;;;7.30;5.40;;;1.10;99.90;;;;;;5057951;28;20550;-67
2023/03/06 06:37:20;;;;;;;9.50;5.23;;;1.10;99.90;;;;;;5057992;28;20455;-67
2023/03/06 06:39:47;;;;;;;6.33;5.10;;;1.10;99.90;;;;;;5057752;28;20767;-67
2023/03/06 06:42:15;;;;;;;7.00;4.50;;;1.10;99.90;;;;;;5058041;28;20454;-68
2023/03/06 06:44:45;;;;;;;5.80;5.03;;;1.10;99.90;;;;;;5057715;28;20469;-68
2023/03/06 06:47:12;;;;;;;6.40;4.67;;;1.10;99.90;;;;;;5057047;28;20465;-66
2023/03/06 06:49:39;;;;;;;4.13;3.57;;;1.10;99.90;;;;;;5057530;28;20455;-67
2023/03/06 06:52:06;;;;;;;8.00;3.63;;;1.10;99.90;;;;;;5057197;28;20466;-66
2023/03/06 06:54:34;;;;;;;4.60;3.37;;;1.10;99.90;;;;;;5057340;28;20797;-67
2023/03/06 06:57:01;;;;;;;3.73;3.30;;;1.10;99.90;;;;;;5056938;28;20908;-67
2023/03/06 06:59:29;;;;;;;5.33;3.83;;;1.10;99.90;;;;;;5056415;28;20534;-67
2023/03/06 07:01:56;;;;;;;4.80;3.60;;;1.10;99.90;;;;;;5057223;28;20469;-67
2023/03/06 07:04:23;;;;;;;6.03;3.90;;;1.20;99.90;;;;;;5057344;28;20520;-67
2023/03/06 07:06:50;;;;;;;6.03;3.57;;;1.10;99.90;;;;;;5057400;28;20550;-67
2023/03/06 07:09:17;;;;;;;5.63;4.70;;;1.20;99.90;;;;;;5057210;28;20493;-67
2023/03/06 07:11:43;;;;;;;4.70;3.40;;;1.20;99.90;;;;;;5057145;28;20545;-67
2023/03/06 07:14:10;;;;;;;5.87;3.80;;;1.10;99.90;;;;;;5056899;28;20479;-67
2023/03/06 07:16:38;;;;;;;4.60;3.60;;;1.10;99.90;;;;;;5057160;28;20455;-66
2023/03/06 07:19:05;;;;;;;5.53;3.47;;;1.00;99.90;;;;;;5057053;28;20487;-66
2023/03/06 07:21:32;;;;;;;5.63;3.30;;;1.00;99.90;;;;;;5057151;28;20461;-67
2023/03/06 07:23:59;;;;;;;4.20;3.03;;;1.00;99.90;;;;;;5056804;28;20465;-66
2023/03/06 07:26:27;;;;;;;4.77;3.87;;;1.00;99.90;;;;;;5057086;28;20459;-67
2023/03/06 07:28:54;;;;;;;7.13;3.77;;;1.00;99.90;;;;;;5057097;28;20883;-67
2023/03/06 07:31:23;;;;;;;4.60;3.60;;;1.00;99.90;;;;;;5056843;28;20520;-67
2023/03/06 07:33:52;;;;;;;6.90;3.97;;;1.00;99.90;;;;;;5057436;28;20463;-67
2023/03/06 07:36:19;;;;;;;7.90;4.20;;;0.90;99.90;;;;;;5056692;28;20466;-66
2023/03/06 07:38:46;;;;;;;5.87;4.13;;;0.90;99.90;;;;;;5056858;28;20465;-67
2023/03/06 07:41:15;;;;;;;4.20;3.40;;;1.00;99.90;;;;;;5056208;28;20459;-68
2023/03/06 07:43:43;;;;;;;4.50;3.50;;;1.00;99.90;;;;;;5056913;28;20460;-67
2023/03/06 07:46:11;;;;;;;5.93;4.17;;;0.90;99.90;;;;;;5057212;28;20459;-67
2023/03/06 07:48:38;;;;;;;4.43;3.57;;;0.80;99.90;;;;;;5056321;28;20515;-67
2023/03/06 07:51:08;;;;;;;4.20;3.20;;;0.80;99.90;;;;;;5056413;28;20477;-66
2023/03/06 07:53:35;;;;;;;5.30;3.73;;;0.80;99.90;;;;;;5056390;28;20443;-68
2023/03/06 07:56:07;;;;;;;5.97;3.80;;;0.90;99.90;;;;;;5048951;28;20979;-67
2023/03/06 07:58:34;;;;;;;5.70;3.90;;;1.00;99.90;;;;;;5056455;28;20440;-67
2023/03/06 08:01:04;;;;;;;4.80;4.10;;;0.90;99.90;;;;;;5055983;28;20455;-67
2023/03/06 08:03:31;;;;;;;5.40;3.20;;;0.90;99.90;;;;;;5056352;28;20542;-67
2023/03/06 08:06:07;;;;;;;5.23;3.77;;;1.00;99.90;;;;;;5054597;28;20455;-68
2023/03/06 08:08:35;;;;;;;8.40;4.50;;;1.00;99.90;;;;;;5056068;28;20574;-68
2023/03/06 08:11:02;;;;;;;8.20;3.80;;;1.10;99.90;;;;;;5054897;28;20455;-68
2023/03/06 08:13:28;;;;;;;4.17;3.53;;;1.20;99.90;;;;;;5055856;28;20545;-67
2023/03/06 08:15:56;;;;;;;7.30;4.30;;;1.10;99.90;;;;;;5048223;28;20839;-67
2023/03/06 08:18:22;;;;;;;7.80;4.30;;;1.10;99.90;;;;;;5036085;28;20514;-67
2023/03/06 08:20:49;;;;;;;4.30;3.77;;;1.30;99.90;;;;;;5035623;28;20495;-68
2023/03/06 08:23:17;;;;;;;5.27;4.10;;;1.30;99.90;;;;;;5035953;28;20642;-67
2023/03/06 08:25:44;;;;;;;4.27;3.40;;;1.40;99.90;;;;;;5035797;28;20468;-67
2023/03/06 08:28:11;;;;;;;5.93;4.37;;;1.40;99.90;;;;;;5035518;28;21078;-68
2023/03/06 08:30:38;;;;;;;13.93;8.77;;;1.30;99.90;;;;;;5035778;28;20460;-68
2023/03/06 08:33:05;;;;;;;8.20;3.83;;;1.30;99.90;;;;;;5035761;28;20466;-67
2023/03/06 08:35:32;;;;;;;5.20;4.07;;;1.30;99.90;;;;;;5035368;28;20456;-68
2023/03/06 08:37:58;;;;;;;4.20;3.60;;;1.40;99.90;;;;;;5035541;28;20455;-66
2023/03/06 08:40:29;;;;;;;6.60;3.80;;;1.50;99.90;;;;;;5035110;28;20933;-66
2023/03/06 08:42:56;;;;;;;13.80;9.30;;;1.40;99.90;;;;;;5035246;28;20444;-67
2023/03/06 08:45:22;;;;;;;6.30;5.33;;;1.50;99.90;;;;;;5035417;28;20943;-67
2023/03/06 08:47:49;;;;;;;10.23;6.97;;;1.60;99.90;;;;;;5035048;28;20466;-67
2023/03/06 08:50:17;;;;;;;5.33;4.30;;;1.60;99.90;;;;;;5035233;28;20455;-66
2023/03/06 08:52:44;;;;;;;6.00;3.87;;;1.60;99.90;;;;;;5035295;28;20464;-67
2023/03/06 08:55:11;;;;;;;5.27;3.83;;;1.50;99.90;;;;;;5035329;28;20456;-67
2023/03/06 08:57:40;;;;;;;4.87;4.37;;;1.50;99.90;;;;;;5035188;28;20465;-67
2023/03/06 09:00:09;;;;;;;6.07;3.93;;;1.50;99.90;;;;;;5035656;28;20938;-67
2023/03/06 09:02:36;;;;;;;5.83;4.30;;;1.60;99.90;;;;;;5034920;28;20463;-66
2023/03/06 09:05:04;;;;;;;5.03;3.70;;;1.50;99.90;;;;;;5035461;28;20554;-67
2023/03/06 09:07:31;;;;;;;5.87;3.80;;;1.50;99.90;;;;;;5035702;28;20909;-67
2023/03/06 09:09:58;;;;;;;4.40;3.30;;;1.50;99.90;;;;;;5035303;28;20483;-66
2023/03/06 09:12:25;;;;;;;4.40;3.50;;;1.50;99.90;;;;;;5035364;28;20466;-66
2023/03/06 09:14:54;;;;;;;5.90;3.40;;;1.50;99.90;;;;;;5035702;28;20878;-68
2023/03/06 09:17:20;;;;;;;8.63;4.10;;;1.60;99.90;;;;;;5035357;28;20480;-67
2023/03/06 09:19:47;;;;;;;4.03;3.00;;;1.60;99.90;;;;;;5035364;28;20470;-67
2023/03/06 09:22:14;;;;;;;5.70;3.40;;;1.60;99.90;;;;;;5034946;28;20460;-67
2023/03/06 09:24:41;;;;;;;4.50;3.30;;;1.60;99.90;;;;;;5035060;28;20452;-67
2023/03/06 09:27:08;;;;;;;4.30;3.20;;;1.60;99.90;;;;;;5035320;28;20630;-67
2023/03/06 09:29:35;;;;;;;6.30;3.27;;;1.60;99.90;;;;;;5035431;28;20492;-67
2023/03/06 09:32:03;;;;;;;3.53;2.50;;;1.70;99.90;;;;;;5034580;28;20499;-67
2023/03/06 09:34:30;;;;;;;3.30;2.90;;;1.70;99.90;;;;;;5034941;28;20786;-66
2023/03/06 09:36:56;;;;;;;4.57;2.90;;;1.70;99.90;;;;;;5034772;28;20547;-66
2023/03/06 09:39:24;;;;;;;3.77;2.60;;;1.60;99.90;;;;;;5035057;28;21003;-67
2023/03/06 09:41:52;;;;;;;3.20;2.13;;;1.50;99.90;;;;;;5034984;28;20931;-67
2023/03/06 09:44:21;;;;;;;3.07;2.67;;;1.60;99.90;;;;;;5034867;28;20518;-67
2023/03/06 09:47:14;;;;;;;2.83;2.50;;;1.60;99.90;;;;;;5034595;28;20456;-67
2023/03/06 09:49:56;;;;;;;6.60;2.70;;;1.70;99.90;;;;;;5034972;28;20468;-67
2023/03/06 09:52:36;;;;;;;3.37;2.07;;;1.70;99.90;;;;;;5034833;28;20535;-68
2023/03/06 09:55:11;;;;;;;4.77;2.40;;;1.70;99.90;;;;;;5034971;28;20517;-67
2023/03/06 09:57:42;;;;;;;3.37;2.40;;;1.80;99.90;;;;;;5034590;28;20447;-67
2023/03/06 10:00:15;;;;;;;17.00;3.67;;;1.90;99.90;;;;;;5034464;28;20444;-67
2023/03/06 10:02:47;;;;;;;12.97;2.70;;;2.00;99.90;;;;;;5034201;28;20444;-67
2023/03/06 10:05:18;;;;;;;5.90;2.60;;;2.00;99.90;;;;;;5034447;28;20452;-68
2023/03/06 10:07:48;;;;;;;5.30;3.43;;;2.00;99.90;;;;;;5034471;28;20937;-68
2023/03/06 10:10:19;;;;;;;6.30;2.90;;;2.10;99.90;;;;;;5034656;28;20483;-67
2023/03/06 10:12:53;;;;;;;2.87;2.57;;;2.20;99.90;;;;;;5034385;28;20455;-67
2023/03/06 10:15:25;;;;;;;5.10;2.47;;;2.20;99.90;;;;;;5033803;28;20827;-67
2023/03/06 10:17:53;;;;;;;5.13;2.43;;;2.10;99.90;;;;;;5033933;28;20900;-67
2023/03/06 10:20:23;;;;;;;4.10;2.63;;;2.00;99.90;;;;;;5034485;28;20551;-68
2023/03/06 10:23:01;;;;;;;2.70;2.17;;;2.10;99.90;;;;;;5034325;28;20471;-67
2023/03/06 10:25:32;;;;;;;10.70;3.20;;;2.10;99.90;;;;;;5033760;28;20889;-66
2023/03/06 10:28:08;;;;;;;2.60;2.10;;;2.20;99.90;;;;;;5034795;28;20535;-68
2023/03/06 10:30:42;;;;;;;4.90;2.70;;;2.20;99.90;;;;;;5034316;28;20807;-67
2023/03/06 10:33:22;;;;;;;5.90;3.17;;;2.20;99.90;;;;;;5034390;28;20444;-67
2023/03/06 10:35:51;;;;;;;4.47;2.30;;;2.10;99.90;;;;;;5037555;28;20454;-68
2023/03/06 10:38:24;;;;;;;2.23;2.03;;;2.20;99.90;;;;;;5037742;28;20920;-67
2023/03/06 10:41:06;;;;;;;5.83;3.00;;;2.20;99.90;;;;;;5038082;28;20542;-67
2023/03/06 10:43:33;;;;;;;5.90;2.63;;;2.20;99.90;;;;;;5037680;28;20455;-67
2023/03/06 10:46:00;;;;;;;4.93;2.47;;;2.20;99.90;;;;;;5037806;28;20476;-67
2023/03/06 10:48:31;;;;;;;4.47;2.77;;;2.20;99.90;;;;;;5037615;28;20939;-67
2023/03/06 10:51:17;;;;;;;6.27;3.30;;;2.20;99.90;;;;;;5037431;28;20822;-67
2023/03/06 10:53:52;;;;;;;3.70;3.27;;;2.20;99.90;;;;;;5037225;28;20455;-67
2023/03/06 10:56:30;;;;;;;5.10;3.20;;;2.20;99.90;;;;;;5037384;28;20491;-67
2023/03/06 10:59:07;;;;;;;8.30;4.10;;;2.10;99.90;;;;;;5037057;28;20635;-67
2023/03/06 11:01:34;;;;;;;4.27;2.83;;;2.10;99.90;;;;;;5037189;28;20534;-68
2023/03/06 11:04:21;;;;;;;4.80;3.57;;;2.00;99.90;;;;;;5037563;28;20862;-67
2023/03/06 11:06:49;;;;;;;4.00;2.80;;;2.00;99.90;;;;;;5037439;28;20436;-69
2023/03/06 11:09:21;;;;;;;4.27;3.03;;;2.00;99.90;;;;;;5037253;28;20549;-69
2023/03/06 11:11:48;;;;;;;3.17;2.70;;;2.20;99.90;;;;;;5037025;28;20460;-68
2023/03/06 11:14:17;;;;;;;7.90;3.13;;;2.20;99.90;;;;;;5036676;28;20567;-67
2023/03/06 11:16:51;;;;;;;2.33;2.13;;;2.20;99.90;;;;;;5036742;28;20480;-69
2023/03/06 11:19:25;;;;;;;7.60;3.73;;;2.20;99.90;;;;;;5036656;28;20444;-69
2023/03/06 11:22:02;;;;;;;2.93;2.40;;;2.20;99.90;;;;;;5037056;28;20436;-69
2023/03/06 11:24:36;;;;;;;8.60;3.80;;;2.20;99.90;;;;;;5036561;28;20460;-68
2023/03/06 11:27:16;;;;;;;6.90;3.97;;;2.10;99.90;;;;;;5037011;28;20772;-67
2023/03/06 11:29:46;;;;;;;6.10;4.27;;;2.20;99.90;;;;;;5037104;28;20478;-67
2023/03/06 11:32:20;;;;;;;6.53;4.50;;;2.20;99.90;;;;;;5036879;28;20456;-67
2023/03/06 11:34:53;;;;;;;4.93;3.63;;;2.30;99.90;;;;;;5037233;28;20835;-68
2023/03/06 11:37:33;;;;;;;6.53;3.63;;;2.40;99.90;;;;;;5037886;28;20476;-68
2023/03/06 11:40:06;;;;;;;5.50;3.70;;;2.50;99.90;;;;;;5036911;28;20466;-67
2023/03/06 11:42:37;;;;;;;3.97;3.50;;;2.50;99.90;;;;;;5037590;28;20476;-66
2023/03/06 11:45:20;;;;;;;2.60;2.40;;;2.60;99.90;;;;;;5036853;28;20444;-66
2023/03/06 11:47:52;;;;;;;4.47;2.90;;;2.70;99.90;;;;;;5037064;28;20455;-67
2023/03/06 11:50:27;;;;;;;5.80;3.63;;;2.80;99.90;;;;;;5037309;28;20579;-67
2023/03/06 11:52:58;;;;;;;5.50;4.10;;;2.90;99.90;;;;;;5037147;28;20440;-67
2023/03/06 11:55:39;;;;;;;4.57;3.93;;;2.80;99.90;;;;;;5037220;28;20472;-68
2023/03/06 11:58:28;;;;;;;8.40;4.07;;;2.80;99.90;;;;;;5037145;28;20543;-67
2023/03/06 12:00:59;;;;;;;5.70;4.40;;;2.90;99.90;;;;;;5036594;28;20536;-68
2023/03/06 12:03:52;;;;;;;4.23;3.70;;;3.00;99.90;;;;;;5037006;28;20455;-67
2023/03/06 12:06:36;;;;;;;3.87;2.93;;;3.00;99.90;;;;;;5027869;28;20456;-67
2023/03/06 12:09:25;;;;;;;4.13;3.20;;;3.00;99.90;;;;;;5035720;28;20540;-66
2023/03/06 12:12:17;;;;;;;4.40;3.40;;;3.10;99.90;;;;;;5033475;28;20552;-66
2023/03/06 12:14:59;;;;;;;4.77;3.37;;;3.00;99.90;;;;;;5038150;28;20494;-67
2023/03/06 12:17:37;;;;;;;7.40;3.30;;;3.00;99.90;;;;;;5037862;28;20750;-67
2023/03/06 12:20:22;;;;;;;7.70;3.43;;;2.90;99.90;;;;;;5040016;28;20849;-66
2023/03/06 12:22:56;;;;;;;3.80;2.97;;;2.80;99.90;;;;;;5041526;28;20449;-67
2023/03/06 12:25:31;;;;;;;8.87;3.47;;;2.80;99.90;;;;;;5040877;28;20454;-67
2023/03/06 12:28:10;;;;;;;6.53;3.53;;;3.00;99.90;;;;;;5039329;28;20446;-67
2023/03/06 12:30:56;;;;;;;3.90;2.40;;;3.10;99.90;;;;;;5038696;28;20468;-67
2023/03/06 12:33:30;;;;;;;2.50;2.20;;;3.20;99.90;;;;;;5039998;28;20440;-67
2023/03/06 12:36:10;;;;;;;2.80;2.30;;;3.30;99.90;;;;;;5040838;28;20507;-66
2023/03/06 12:38:55;;;;;;;2.73;2.03;;;3.20;99.90;;;;;;5041242;28;20435;-68
2023/03/06 12:41:34;;;;;;;2.63;2.17;;;3.20;99.90;;;;;;5040434;28;20763;-66
2023/03/06 12:44:23;;;;;;;3.70;2.50;;;3.30;99.90;;;;;;5039108;28;20436;-66
2023/03/06 12:46:54;;;;;;;3.17;2.07;;;3.40;99.90;;;;;;5036337;28;20455;-66
2023/03/06 12:49:25;;;;;;;3.90;1.90;;;3.50;99.90;;;;;;5035561;28;20961;-67
2023/03/06 12:51:53;;;;;;;3.60;2.07;;;3.50;99.90;;;;;;5035833;28;20444;-67
2023/03/06 12:54:25;;;;;;;3.30;1.97;;;3.50;99.90;;;;;;5036012;28;20452;-66
2023/03/06 12:56:53;;;;;;;4.50;2.07;;;3.50;99.90;;;;;;5035114;28;20450;-67
2023/03/06 12:59:43;;;;;;;2.10;1.90;;;3.50;99.90;;;;;;5036524;28;20534;-66
2023/03/06 13:02:40;;;;;;;2.10;1.90;;;3.40;99.90;;;;;;5035503;28;20471;-67
2023/03/06 13:05:38;;;;;;;3.60;2.23;;;3.60;99.90;;;;;;5027734;28;20460;-67
2023/03/06 13:08:26;;;;;;;5.60;2.57;;;4.10;99.90;;;;;;5035440;28;20519;-66